createdAt,value
2022-07-26T00:01:32.998Z,17.80
2022-07-26T00:04:19.308Z,17.70
2022-07-26T00:07:05.433Z,17.60
2022-07-26T00:09:51.593Z,17.50
2022-07-26T00:12:37.867Z,17.50
2022-07-26T00:15:24.328Z,17.40
2022-07-26T00:18:12.052Z,17.40
2022-07-26T00:20:58.296Z,17.40
2022-07-26T00:23:44.368Z,17.30
2022-07-26T00:26:30.526Z,17.30
2022-07-26T00:29:16.693Z,17.20
2022-07-26T00:32:02.728Z,17.20
2022-07-26T00:34:48.593Z,17.20
2022-07-26T00:37:34.951Z,17.10
2022-07-26T00:40:21.614Z,17.10
2022-07-26T00:43:07.881Z,17.10
2022-07-26T00:45:53.934Z,17.10
2022-07-26T00:48:40.570Z,17.10
2022-07-26T00:51:28.615Z,17.20
2022-07-26T00:54:18.062Z,17.20
2022-07-26T00:57:05.198Z,17.10
2022-07-26T00:59:51.715Z,17.10
2022-07-26T01:02:39.720Z,17.10
2022-07-26T01:05:26.589Z,17.10
2022-07-26T01:08:12.837Z,17.10
2022-07-26T01:10:59.068Z,17.20
2022-07-26T01:13:50.117Z,17.20
2022-07-26T01:16:36.533Z,17.20
2022-07-26T01:19:23.135Z,17.20
2022-07-26T01:22:14.130Z,17.20
2022-07-26T01:25:00.847Z,17.20
2022-07-26T01:27:46.951Z,17.20
2022-07-26T01:30:33.051Z,17.20
2022-07-26T01:33:19.292Z,17.10
2022-07-26T01:36:06.269Z,17.10
2022-07-26T01:38:52.238Z,17.20
2022-07-26T01:41:38.656Z,17.10
2022-07-26T01:44:24.894Z,17.20
2022-07-26T01:47:10.765Z,17.20
2022-07-26T01:49:56.854Z,17.20
2022-07-26T01:52:42.970Z,17.20
2022-07-26T01:55:28.829Z,17.20
2022-07-26T01:58:14.888Z,17.30
2022-07-26T02:01:00.862Z,17.30
2022-07-26T02:03:46.764Z,17.30
2022-07-26T02:06:32.865Z,17.30
2022-07-26T02:09:20.614Z,17.30
2022-07-26T02:12:07.580Z,17.30
2022-07-26T02:14:53.649Z,17.30
2022-07-26T02:17:39.847Z,17.30
2022-07-26T02:20:26.252Z,17.40
2022-07-26T02:23:12.605Z,17.40
2022-07-26T02:25:58.461Z,17.40
2022-07-26T02:28:44.963Z,17.40
2022-07-26T02:31:32.422Z,17.40
2022-07-26T02:34:19.048Z,17.40
2022-07-26T02:37:05.446Z,17.40
2022-07-26T02:39:51.483Z,17.40
2022-07-26T02:42:37.391Z,17.40
2022-07-26T02:45:23.456Z,17.40
2022-07-26T02:48:09.726Z,17.40
2022-07-26T02:50:55.680Z,17.40
2022-07-26T02:53:41.539Z,17.40
2022-07-26T02:56:27.520Z,17.30
2022-07-26T02:59:13.520Z,17.40
2022-07-26T03:01:59.920Z,17.40
2022-07-26T03:04:46.479Z,17.40
2022-07-26T03:07:33.568Z,17.30
2022-07-26T03:10:19.845Z,17.30
2022-07-26T03:13:05.720Z,17.30
2022-07-26T03:15:51.880Z,17.20
2022-07-26T03:18:38.948Z,17.30
2022-07-26T03:21:25.084Z,17.20
2022-07-26T03:24:13.593Z,17.20
2022-07-26T03:26:59.845Z,17.20
2022-07-26T03:29:46.142Z,17.20
2022-07-26T03:32:32.386Z,17.10
2022-07-26T03:35:18.550Z,17.10
2022-07-26T03:38:04.698Z,17.10
2022-07-26T03:40:50.784Z,17.10
2022-07-26T03:43:36.997Z,17.10
2022-07-26T03:46:23.988Z,17.10
2022-07-26T03:49:16.096Z,17.10
2022-07-26T03:52:03.089Z,17.10
2022-07-26T03:54:49.273Z,17.10
2022-07-26T03:57:35.353Z,17.00
2022-07-26T04:00:21.522Z,17.00
2022-07-26T04:03:08.171Z,17.00
2022-07-26T04:05:54.381Z,17.00
2022-07-26T04:08:50.564Z,17.00
2022-07-26T04:11:36.658Z,17.00
2022-07-26T04:14:23.246Z,16.90
2022-07-26T04:17:09.121Z,16.90
2022-07-26T04:20:00.785Z,16.90
2022-07-26T04:22:47.029Z,16.80
2022-07-26T04:25:38.542Z,16.80
2022-07-26T04:28:28.930Z,16.80
2022-07-26T04:31:15.273Z,16.70
2022-07-26T04:34:01.574Z,16.70
2022-07-26T04:36:47.834Z,16.70
2022-07-26T04:39:33.630Z,16.70
2022-07-26T04:42:19.882Z,16.70
2022-07-26T04:45:08.585Z,16.70
2022-07-26T04:47:55.082Z,16.70
2022-07-26T04:50:42.313Z,16.70
2022-07-26T04:53:28.560Z,16.70
2022-07-26T04:56:14.435Z,16.70
2022-07-26T04:59:00.898Z,16.70
2022-07-26T05:01:47.154Z,16.70
2022-07-26T05:04:33.445Z,16.70
2022-07-26T05:07:19.537Z,16.70
2022-07-26T05:10:06.685Z,16.80
2022-07-26T05:12:53.394Z,16.80
2022-07-26T05:15:42.954Z,16.80
2022-07-26T05:18:46.020Z,16.80
2022-07-26T05:21:35.674Z,16.80
2022-07-26T05:24:22.108Z,16.80
2022-07-26T05:27:08.832Z,16.80
2022-07-26T05:29:55.962Z,16.80
2022-07-26T05:32:45.324Z,16.80
2022-07-26T05:35:31.508Z,16.80
2022-07-26T05:38:21.240Z,16.80
2022-07-26T05:41:08.041Z,16.90
2022-07-26T05:43:54.283Z,16.90
2022-07-26T05:46:40.836Z,16.90
2022-07-26T05:49:40.475Z,16.90
2022-07-26T05:52:26.736Z,16.90
2022-07-26T05:55:13.114Z,16.90
2022-07-26T05:57:59.173Z,16.80
2022-07-26T06:00:48.462Z,16.80
2022-07-26T06:03:34.956Z,16.70
2022-07-26T06:06:26.729Z,16.70
2022-07-26T06:09:13.827Z,16.60
2022-07-26T06:12:03.397Z,16.60
2022-07-26T06:14:49.889Z,16.60
2022-07-26T06:17:58.405Z,16.60
2022-07-26T06:20:46.501Z,16.60
2022-07-26T06:23:34.726Z,16.50
2022-07-26T06:26:23.824Z,16.60
2022-07-26T06:29:10.175Z,16.60
2022-07-26T06:31:56.165Z,16.60
2022-07-26T06:34:44.388Z,16.70
2022-07-26T06:37:30.465Z,16.70
2022-07-26T06:40:18.911Z,16.80
2022-07-26T06:43:06.207Z,16.80
2022-07-26T06:45:52.648Z,16.70
2022-07-26T06:48:39.353Z,16.70
2022-07-26T06:51:28.584Z,16.70
2022-07-26T06:54:14.499Z,16.70
2022-07-26T06:57:02.623Z,16.70
2022-07-26T06:59:48.827Z,16.70
2022-07-26T07:02:37.323Z,16.70
2022-07-26T07:05:23.537Z,16.80
2022-07-26T07:08:11.561Z,16.80
2022-07-26T07:10:57.919Z,16.80
2022-07-26T07:13:44.283Z,16.90
2022-07-26T07:16:30.674Z,17.00
2022-07-26T07:19:17.034Z,17.10
2022-07-26T07:22:04.314Z,17.00
2022-07-26T07:24:50.579Z,17.10
2022-07-26T07:27:36.796Z,17.10
2022-07-26T07:30:23.344Z,17.10
2022-07-26T07:33:22.274Z,17.10
2022-07-26T07:36:09.500Z,17.10
2022-07-26T07:38:55.754Z,17.20
2022-07-26T07:41:44.412Z,17.20
2022-07-26T07:44:30.630Z,17.30
2022-07-26T07:47:18.125Z,17.40
2022-07-26T07:50:04.660Z,17.50
2022-07-26T07:52:51.012Z,17.50
2022-07-26T07:55:41.366Z,17.60
2022-07-26T07:58:30.363Z,17.60
2022-07-26T08:01:16.477Z,17.50
2022-07-26T08:04:03.159Z,17.50
2022-07-26T08:06:52.523Z,17.50
2022-07-26T08:09:42.933Z,17.50
2022-07-26T08:12:29.380Z,17.50
2022-07-26T08:15:15.394Z,17.50
2022-07-26T08:18:01.361Z,17.60
2022-07-26T08:20:51.821Z,17.60
2022-07-26T08:23:38.449Z,17.70
2022-07-26T08:26:25.309Z,17.80
2022-07-26T08:29:11.891Z,17.90
2022-07-26T08:31:58.870Z,17.90
2022-07-26T08:34:46.506Z,17.90
2022-07-26T08:37:32.381Z,17.90
2022-07-26T08:40:18.629Z,17.80
2022-07-26T08:43:04.845Z,17.70
2022-07-26T08:45:50.732Z,17.70
2022-07-26T08:48:42.800Z,17.60
2022-07-26T08:51:31.583Z,17.60
2022-07-26T08:54:17.889Z,17.70
2022-07-26T08:57:03.960Z,17.70
2022-07-26T09:00:22.447Z,17.80
2022-07-26T09:03:09.790Z,17.80
2022-07-26T09:05:56.636Z,17.90
2022-07-26T09:08:44.620Z,18.00
2022-07-26T09:11:33.862Z,18.10
2022-07-26T09:14:21.458Z,18.20
2022-07-26T09:17:08.196Z,18.40
2022-07-26T09:20:10.073Z,18.60
2022-07-26T09:23:00.397Z,18.90
2022-07-26T09:25:47.320Z,19.10
2022-07-26T09:28:33.519Z,19.40
2022-07-26T09:31:23.787Z,19.60
2022-07-26T09:34:10.363Z,19.90
2022-07-26T09:36:56.540Z,20.10
2022-07-26T09:39:57.551Z,20.20
2022-07-26T09:43:05.069Z,20.40
2022-07-26T09:46:05.322Z,20.40
2022-07-26T09:49:10.103Z,20.40
2022-07-26T09:51:57.242Z,20.30
2022-07-26T09:54:48.449Z,20.10
2022-07-26T09:57:35.393Z,20.00
2022-07-26T10:00:21.793Z,19.90
2022-07-26T10:03:08.103Z,19.80
2022-07-26T10:05:57.633Z,19.60
2022-07-26T10:08:45.349Z,19.50
2022-07-26T10:11:52.293Z,19.40
2022-07-26T10:14:46.999Z,19.30
2022-07-26T10:17:41.738Z,19.40
2022-07-26T10:20:48.643Z,19.50
2022-07-26T10:23:41.803Z,19.60
2022-07-26T10:26:40.090Z,19.80
2022-07-26T10:29:28.973Z,20.00
2022-07-26T10:32:19.467Z,20.20
2022-07-26T10:35:34.126Z,20.40
2022-07-26T10:38:26.432Z,20.60
2022-07-26T10:41:12.629Z,20.90
2022-07-26T10:44:22.349Z,21.10
2022-07-26T10:47:08.546Z,21.30
2022-07-26T10:49:59.117Z,21.50
2022-07-26T10:52:59.078Z,21.60
2022-07-26T10:55:50.526Z,21.70
2022-07-26T10:58:42.788Z,21.80
2022-07-26T11:01:40.960Z,22.00
2022-07-26T11:04:27.330Z,22.10
2022-07-26T11:07:14.105Z,22.20
2022-07-26T11:10:01.654Z,22.20
2022-07-26T11:12:48.230Z,22.30
2022-07-26T11:15:36.887Z,22.30
2022-07-26T11:18:37.742Z,22.40
2022-07-26T11:21:23.972Z,22.40
2022-07-26T11:24:12.926Z,22.40
2022-07-26T11:27:04.175Z,22.50
2022-07-26T11:29:50.411Z,22.50
2022-07-26T11:32:38.983Z,22.60
2022-07-26T11:35:29.998Z,22.60
2022-07-26T11:38:17.267Z,22.50
2022-07-26T11:41:03.810Z,22.50
2022-07-26T11:43:51.739Z,22.40
2022-07-26T11:46:40.957Z,22.40
2022-07-26T11:52:37.729Z,22.30
2022-07-26T11:55:31.060Z,22.20
2022-07-26T11:58:17.602Z,22.20
2022-07-26T12:01:03.824Z,22.10
2022-07-26T12:03:52.102Z,22.00
2022-07-26T12:06:39.000Z,21.90
2022-07-26T12:09:38.864Z,21.90
2022-07-26T12:12:33.056Z,22.00
2022-07-26T12:15:19.394Z,22.00
2022-07-26T12:18:05.388Z,22.00
2022-07-26T12:21:05.639Z,22.00
2022-07-26T12:23:53.154Z,22.10
2022-07-26T12:26:40.506Z,22.10
2022-07-26T12:29:34.120Z,22.10
2022-07-26T12:32:44.281Z,22.00
2022-07-26T12:35:33.669Z,22.10
2022-07-26T12:38:39.761Z,22.00
2022-07-26T12:41:37.684Z,21.90
2022-07-26T12:44:24.027Z,21.80
2022-07-26T12:47:11.212Z,21.70
2022-07-26T12:49:57.275Z,21.70
2022-07-26T12:52:44.090Z,21.70
2022-07-26T12:55:30.446Z,21.80
2022-07-26T12:58:16.574Z,21.90
2022-07-26T13:01:02.709Z,22.10
2022-07-26T13:03:48.987Z,22.10
2022-07-26T13:06:35.241Z,22.20
2022-07-26T13:09:22.229Z,22.20
2022-07-26T13:12:09.369Z,22.30
2022-07-26T13:14:55.559Z,22.20
2022-07-26T13:17:41.963Z,22.20
2022-07-26T13:20:28.532Z,22.10
2022-07-26T13:23:17.897Z,22.00
2022-07-26T13:26:09.285Z,21.90
2022-07-26T13:28:57.507Z,21.70
2022-07-26T13:31:43.910Z,21.60
2022-07-26T13:34:34.905Z,21.40
2022-07-26T13:37:21.861Z,21.30
2022-07-26T13:40:08.167Z,21.20
2022-07-26T13:42:54.811Z,21.10
2022-07-26T13:45:41.252Z,21.00
2022-07-26T13:48:27.962Z,21.00
2022-07-26T13:51:14.842Z,20.90
2022-07-26T13:54:01.341Z,20.80
2022-07-26T13:56:48.395Z,20.80
2022-07-26T13:59:38.170Z,20.70
2022-07-26T14:02:24.637Z,20.70
2022-07-26T14:05:20.563Z,20.70
2022-07-26T14:08:07.183Z,20.70
2022-07-26T14:10:53.254Z,20.70
2022-07-26T14:13:39.529Z,20.80
2022-07-26T14:16:27.817Z,20.90
2022-07-26T14:19:14.352Z,21.00
2022-07-26T14:22:00.843Z,21.10
2022-07-26T14:24:47.955Z,21.20
2022-07-26T14:27:34.279Z,21.50
2022-07-26T14:30:21.565Z,21.70
2022-07-26T14:33:07.757Z,21.90
2022-07-26T14:35:53.756Z,22.10
2022-07-26T14:38:43.958Z,22.30
2022-07-26T14:41:31.628Z,22.70
2022-07-26T14:44:18.060Z,23.20
2022-07-26T14:47:04.071Z,23.90
2022-07-26T14:49:53.503Z,24.50
2022-07-26T14:52:41.924Z,25.10
2022-07-26T14:55:28.435Z,25.50
2022-07-26T14:58:14.412Z,26.00
2022-07-26T15:01:00.499Z,26.30
2022-07-26T15:03:47.165Z,26.50
2022-07-26T15:06:33.582Z,26.60
2022-07-26T15:09:19.611Z,26.70
2022-07-26T15:12:05.687Z,26.80
2022-07-26T15:14:52.355Z,26.80
2022-07-26T15:17:39.890Z,26.60
2022-07-26T15:20:27.072Z,26.40
2022-07-26T15:23:14.866Z,26.10
2022-07-26T15:26:01.188Z,25.90
2022-07-26T15:28:47.169Z,25.70
2022-07-26T15:31:37.454Z,25.50
2022-07-26T15:34:24.038Z,25.40
2022-07-26T15:37:12.833Z,25.40
2022-07-26T15:39:59.085Z,25.40
2022-07-26T15:42:48.987Z,25.50
2022-07-26T15:45:37.406Z,25.70
2022-07-26T15:48:23.943Z,26.00
2022-07-26T15:51:10.528Z,26.10
2022-07-26T15:53:56.528Z,26.10
2022-07-26T15:56:43.108Z,26.00
2022-07-26T15:59:29.543Z,25.70
2022-07-26T16:02:16.003Z,25.60
2022-07-26T16:05:02.302Z,25.50
2022-07-26T16:07:48.456Z,25.50
2022-07-26T16:10:34.829Z,25.60
2022-07-26T16:13:20.826Z,25.70
2022-07-26T16:16:11.088Z,25.80
2022-07-26T16:18:59.919Z,25.90
2022-07-26T16:21:46.262Z,25.90
2022-07-26T16:24:32.243Z,26.00
2022-07-26T16:27:18.756Z,26.00
2022-07-26T16:30:05.434Z,26.40
2022-07-26T16:32:51.334Z,27.20
2022-07-26T16:35:37.402Z,27.60
2022-07-26T16:38:23.412Z,27.70
2022-07-26T16:41:11.356Z,27.70
2022-07-26T16:44:00.326Z,27.90
2022-07-26T16:46:46.839Z,27.90
2022-07-26T16:49:36.795Z,27.90
2022-07-26T16:52:23.380Z,28.70
2022-07-26T16:55:15.347Z,29.60
2022-07-26T16:58:01.243Z,30.30
2022-07-26T17:00:47.379Z,30.90
2022-07-26T17:03:34.550Z,30.70
2022-07-26T17:06:20.811Z,30.20
2022-07-26T17:09:07.191Z,29.40
2022-07-26T17:12:06.215Z,28.60
2022-07-26T17:14:53.729Z,27.80
2022-07-26T17:17:39.757Z,27.10
2022-07-26T17:20:25.638Z,26.50
2022-07-26T17:23:11.669Z,25.80
2022-07-26T17:25:58.039Z,25.30
2022-07-26T17:28:44.304Z,24.70
2022-07-26T17:31:30.750Z,24.20
2022-07-26T17:34:16.881Z,23.80
2022-07-26T17:37:05.968Z,23.40
2022-07-26T17:39:57.367Z,23.10
2022-07-26T17:42:43.725Z,22.70
2022-07-26T17:45:29.849Z,22.50
2022-07-26T17:48:16.046Z,22.30
2022-07-26T17:51:02.487Z,22.10
2022-07-26T17:53:53.102Z,22.00
2022-07-26T17:56:39.435Z,21.80
2022-07-26T17:59:31.473Z,21.70
2022-07-26T18:02:17.599Z,21.60
2022-07-26T18:05:04.570Z,21.50
2022-07-26T18:07:50.794Z,21.30
2022-07-26T18:10:37.223Z,21.30
2022-07-26T18:13:27.694Z,21.20
2022-07-26T18:16:14.414Z,21.20
2022-07-26T18:19:00.867Z,21.30
2022-07-26T18:21:46.786Z,21.30
2022-07-26T18:24:32.944Z,21.30
2022-07-26T18:27:19.623Z,21.30
2022-07-26T18:30:06.508Z,21.30
2022-07-26T18:32:52.766Z,21.30
2022-07-26T18:35:38.986Z,21.30
2022-07-26T18:38:25.226Z,21.20
2022-07-26T18:41:12.401Z,21.20
2022-07-26T18:43:58.830Z,21.10
2022-07-26T18:46:45.084Z,21.00
2022-07-26T18:49:32.654Z,21.00
2022-07-26T18:52:28.473Z,20.80
2022-07-26T18:55:17.790Z,20.80
2022-07-26T18:58:06.922Z,20.80
2022-07-26T19:00:54.799Z,20.70
2022-07-26T19:03:40.812Z,20.60
2022-07-26T19:06:27.211Z,20.50
2022-07-26T19:09:13.901Z,20.50
2022-07-26T19:12:00.547Z,20.30
2022-07-26T19:14:46.673Z,20.30
2022-07-26T19:17:37.154Z,20.20
2022-07-26T19:20:23.684Z,20.10
2022-07-26T19:23:13.131Z,20.00
2022-07-26T19:25:59.512Z,19.80
2022-07-26T19:28:45.882Z,19.70
2022-07-26T19:31:44.569Z,19.60
2022-07-26T19:34:30.910Z,19.50
2022-07-26T19:37:22.847Z,19.40
2022-07-26T19:40:09.392Z,19.30
2022-07-26T19:42:55.639Z,19.30
2022-07-26T19:45:41.691Z,19.10
2022-07-26T19:48:27.868Z,19.00
2022-07-26T19:51:14.080Z,18.90
2022-07-26T19:54:00.096Z,18.80
2022-07-26T19:56:46.107Z,18.80
2022-07-26T19:59:32.153Z,18.70
2022-07-26T20:02:18.510Z,18.60
2022-07-26T20:05:05.245Z,18.50
2022-07-26T20:07:51.443Z,18.40
2022-07-26T20:10:37.883Z,18.30
2022-07-26T20:13:24.249Z,18.20
2022-07-26T20:16:10.430Z,18.20
2022-07-26T20:18:56.320Z,18.10
2022-07-26T20:21:42.605Z,18.10
2022-07-26T20:24:28.701Z,18.00
2022-07-26T20:27:15.126Z,17.90
2022-07-26T20:30:01.601Z,17.90
2022-07-26T20:32:47.634Z,17.80
2022-07-26T20:35:33.940Z,17.80
2022-07-26T20:38:19.927Z,17.80
2022-07-26T20:41:06.944Z,17.70
2022-07-26T20:43:53.648Z,17.60
2022-07-26T20:46:42.845Z,17.60
2022-07-26T20:49:29.061Z,17.60
2022-07-26T20:52:15.775Z,17.60
2022-07-26T20:55:01.922Z,17.70
2022-07-26T20:57:52.439Z,17.70
2022-07-26T21:00:38.879Z,17.70
2022-07-26T21:03:27.082Z,17.70
2022-07-26T21:06:13.202Z,17.70
2022-07-26T21:09:01.119Z,17.70
2022-07-26T21:11:55.223Z,17.70
2022-07-26T21:14:41.457Z,17.70
2022-07-26T21:17:32.892Z,17.70
2022-07-26T21:20:21.010Z,17.70
2022-07-26T21:23:16.835Z,17.80
2022-07-26T21:26:04.448Z,17.80
2022-07-26T21:28:51.066Z,17.80
2022-07-26T21:31:37.657Z,17.80
2022-07-26T21:34:25.576Z,17.70
2022-07-26T21:37:11.650Z,17.80
2022-07-26T21:39:57.919Z,17.70
2022-07-26T21:42:48.390Z,17.70
2022-07-26T21:45:35.790Z,17.70
2022-07-26T21:48:22.064Z,17.70
2022-07-26T21:51:08.872Z,17.70
2022-07-26T21:53:55.795Z,17.70
2022-07-26T21:56:42.443Z,17.70
2022-07-26T21:59:32.493Z,17.70
2022-07-26T22:02:20.093Z,17.70
2022-07-26T22:05:28.779Z,17.70
2022-07-26T22:08:15.929Z,17.70
2022-07-26T22:11:03.748Z,17.70
2022-07-26T22:13:52.735Z,17.70
2022-07-26T22:16:39.319Z,17.60
2022-07-26T22:19:26.017Z,17.60
2022-07-26T22:22:12.276Z,17.60
2022-07-26T22:24:58.710Z,17.60
2022-07-26T22:27:45.105Z,17.60
2022-07-26T22:31:00.581Z,17.50
2022-07-26T22:33:46.908Z,17.50
2022-07-26T22:36:33.200Z,17.40
2022-07-26T22:39:19.424Z,17.50
2022-07-26T22:42:15.234Z,17.40
2022-07-26T22:45:03.356Z,17.40
2022-07-26T22:47:57.119Z,17.40
2022-07-26T22:50:44.341Z,17.40
2022-07-26T22:53:30.745Z,17.40
2022-07-26T22:56:19.619Z,17.30
2022-07-26T22:59:06.819Z,17.30
2022-07-26T23:01:53.929Z,17.30
2022-07-26T23:04:40.806Z,17.30
2022-07-26T23:07:34.437Z,17.30
2022-07-26T23:10:22.056Z,17.20
2022-07-26T23:13:08.591Z,17.20
2022-07-26T23:16:00.536Z,17.20
2022-07-26T23:18:47.714Z,17.20
2022-07-26T23:21:34.153Z,17.30
2022-07-26T23:24:20.249Z,17.20
2022-07-26T23:27:06.460Z,17.20
2022-07-26T23:29:52.517Z,17.20
2022-07-26T23:32:38.895Z,17.20
2022-07-26T23:35:25.046Z,17.20
2022-07-26T23:38:11.133Z,17.20
2022-07-26T23:40:57.611Z,17.20
2022-07-26T23:43:43.962Z,17.10
2022-07-26T23:46:30.441Z,17.10
2022-07-26T23:49:17.172Z,17.10
2022-07-26T23:52:10.682Z,17.10
2022-07-26T23:54:56.884Z,17.10
2022-07-26T23:57:42.969Z,17.10
